Oakland Acres, Iowa
Current Conditions -  °F | °C
As of 11:35 PM on Sunday 19 Oct 2014 (Local Time) from KGGI Reporting Station
Clear Clear  
Wind Chill: 51°   Ceiling: Unl
Heat Index: 51°   Visibility: 10mi
Dew Point: 45°   Wind: 6mph
Humidity: 79%   Direction: 220°SW
Pressure: 29.9"   Gusts: NA
Location:  41.7319°N, 92.7662°W
Report Text: KGGI 200435Z AUTO 22005KT 10SM CLR 11/07 A2990 RMK AO2 T01050070
Loading
Personal Weather Stations






























Interactive Weather Map
Tropical Storm Tracking
New forecast layout! Learn more

10-Day Weather Forecast

Advertisements
Track Severe Weather on mobile